Time;durP1;ratioP1;P1;durP2;ratioP2;P2;SDS_P1;SDS_P2;PMS_P1;PMS_P2;Temp;Humidity;BMP_temperature;BMP_pressure;BME280_temperature;BME280_humidity;BME280_pressure;Samples;Min_cycle;Max_cycle;Signal;HPM_P1;HPM_P2
2022/09/03 00:01:10;;;;;;;5.40;2.53;;;;;;;;;;8494956;27;20371;-78
2022/09/03 00:05:18;;;;;;;3.85;2.40;;;;;;;;;;8497715;27;20422;-77
2022/09/03 00:09:26;;;;;;;5.38;2.42;;;;;;;;;;8497495;27;20116;-77
2022/09/03 00:13:33;;;;;;;4.05;2.38;;;;;;;;;;8497221;27;20043;-77
2022/09/03 00:17:40;;;;;;;5.10;2.28;;;;;;;;;;8497228;27;20047;-77
2022/09/03 00:21:46;;;;;;;7.78;2.90;;;;;;;;;;8497091;27;20043;-77
2022/09/03 00:25:56;;;;;;;3.20;2.35;;;;;;;;;;8497386;27;20068;-87
2022/09/03 00:30:02;;;;;;;4.32;2.75;;;;;;;;;;8493166;27;20445;-77
2022/09/03 00:34:09;;;;;;;3.05;2.20;;;;;;;;;;8493533;27;20130;-77
2022/09/03 00:38:15;;;;;;;4.60;2.67;;;;;;;;;;8496181;27;20525;-76
2022/09/03 00:42:35;;;;;;;5.65;2.45;;;;;;;;;;8497013;27;20043;-77
2022/09/03 00:46:47;;;;;;;4.00;2.40;;;;;;;;;;8496490;27;20039;-76
2022/09/03 00:51:02;;;;;;;4.15;2.60;;;;;;;;;;8496187;27;20059;-77
2022/09/03 00:55:13;;;;;;;4.72;2.22;;;;;;;;;;8491080;27;20464;-77
2022/09/03 00:59:30;;;;;;;4.40;2.47;;;;;;;;;;8496670;27;20055;-76
2022/09/03 01:03:40;;;;;;;6.57;2.53;;;;;;;;;;8496189;28;20043;-76
2022/09/03 01:07:54;;;;;;;4.72;2.75;;;;;;;;;;8496133;28;20238;-78
2022/09/03 01:12:06;;;;;;;5.10;2.80;;;;;;;;;;8496061;28;20469;-74
2022/09/03 01:16:21;;;;;;;5.15;2.80;;;;;;;;;;8495920;28;20054;-76
2022/09/03 01:20:34;;;;;;;5.43;2.70;;;;;;;;;;8496379;28;20140;-76
2022/09/03 01:24:52;;;;;;;6.63;2.90;;;;;;;;;;8489578;27;20417;-77
2022/09/03 01:29:07;;;;;;;5.05;2.88;;;;;;;;;;8485903;28;20035;-75
2022/09/03 01:33:17;;;;;;;4.10;2.50;;;;;;;;;;8479707;28;20039;-75
2022/09/03 01:37:29;;;;;;;4.05;2.75;;;;;;;;;;8492175;28;20039;-77
2022/09/03 01:46:12;;;;;;;5.00;3.03;;;;;;;;;;8489508;28;20043;-77
2022/09/03 01:50:33;;;;;;;8.25;2.92;;;;;;;;;;8490522;27;20051;-77
2022/09/03 01:54:59;;;;;;;5.18;3.28;;;;;;;;;;8496677;27;20043;-78
2022/09/03 01:59:09;;;;;;;5.55;3.13;;;;;;;;;;8495836;27;20471;-76
2022/09/03 02:03:13;;;;;;;5.20;3.22;;;;;;;;;;8482140;27;20122;-77
2022/09/03 02:07:16;;;;;;;5.28;3.15;;;;;;;;;;8485000;27;20038;-76
2022/09/03 02:11:19;;;;;;;5.32;3.38;;;;;;;;;;8495519;27;20123;-84
2022/09/03 02:15:27;;;;;;;5.30;3.28;;;;;;;;;;8495135;27;20043;-76
2022/09/03 02:19:40;;;;;;;6.10;3.17;;;;;;;;;;8483184;27;20089;-86
2022/09/03 02:27:49;;;;;;;5.82;3.25;;;;;;;;;;8438705;27;20035;-77
2022/09/03 02:31:51;;;;;;;6.35;3.63;;;;;;;;;;8481011;27;20475;-77
2022/09/03 02:35:55;;;;;;;5.82;3.00;;;;;;;;;;8485410;27;20094;-76
2022/09/03 02:39:58;;;;;;;5.57;3.20;;;;;;;;;;8499920;27;20054;-75
2022/09/03 02:44:06;;;;;;;5.18;3.08;;;;;;;;;;8500779;27;20075;-76
2022/09/03 02:48:11;;;;;;;14.18;6.90;;;;;;;;;;8498520;27;20039;-75
2022/09/03 02:52:16;;;;;;;10.18;3.85;;;;;;;;;;8499952;27;20086;-75
2022/09/03 02:56:18;;;;;;;7.10;4.00;;;;;;;;;;8499731;27;20051;-76
2022/09/03 03:00:21;;;;;;;4.47;2.80;;;;;;;;;;8499578;27;20488;-77
2022/09/03 03:04:24;;;;;;;6.35;3.33;;;;;;;;;;8499574;27;20050;-77
2022/09/03 03:08:31;;;;;;;12.35;4.78;;;;;;;;;;8499345;27;20049;-76
2022/09/03 03:12:33;;;;;;;7.57;3.45;;;;;;;;;;8497856;27;20058;-76
2022/09/03 03:16:36;;;;;;;5.07;3.03;;;;;;;;;;8489147;27;20039;-76
2022/09/03 03:20:39;;;;;;;4.88;3.05;;;;;;;;;;8480280;27;20436;-76
2022/09/03 03:24:42;;;;;;;7.57;2.90;;;;;;;;;;8479737;27;20067;-78
2022/09/03 03:28:47;;;;;;;4.80;2.70;;;;;;;;;;8482429;27;20043;-77
2022/09/03 03:32:49;;;;;;;4.63;2.70;;;;;;;;;;8488207;27;20116;-77
2022/09/03 03:36:52;;;;;;;5.72;2.65;;;;;;;;;;8480356;27;20096;-77
2022/09/03 03:40:55;;;;;;;5.20;2.78;;;;;;;;;;8495955;27;20055;-76
2022/09/03 03:44:58;;;;;;;7.25;2.90;;;;;;;;;;8483225;27;20043;-76
2022/09/03 03:49:00;;;;;;;;;;;;;;;;;;8482436;27;20479;-77
2022/09/03 03:53:03;;;;;;;5.70;2.78;;;;;;;;;;8493821;27;19927;-77
2022/09/03 03:57:07;;;;;;;5.45;2.55;;;;;;;;;;8495387;27;20403;-77
2022/09/03 04:01:11;;;;;;;5.35;2.80;;;;;;;;;;8479707;27;20065;-77
2022/09/03 04:05:13;;;;;;;3.97;2.78;;;;;;;;;;8490164;27;20126;-77
2022/09/03 04:09:16;;;;;;;5.38;2.72;;;;;;;;;;8494545;27;20040;-76
2022/09/03 04:13:20;;;;;;;;;;;;;;;;;;8483003;27;20122;-77
2022/09/03 04:17:22;;;;;;;3.55;2.40;;;;;;;;;;8483652;27;19920;-76
2022/09/03 04:21:26;;;;;;;6.30;2.70;;;;;;;;;;8475929;27;20047;-77
2022/09/03 04:25:29;;;;;;;4.82;2.60;;;;;;;;;;8494510;27;20039;-76
2022/09/03 04:29:33;;;;;;;7.15;2.70;;;;;;;;;;8496177;27;20058;-76
2022/09/03 04:33:38;;;;;;;5.97;2.92;;;;;;;;;;8495257;27;20047;-76
2022/09/03 04:37:40;;;;;;;5.78;3.00;;;;;;;;;;8496551;27;20063;-76
2022/09/03 04:41:43;;;;;;;7.95;3.72;;;;;;;;;;8497019;27;20039;-77
2022/09/03 04:45:47;;;;;;;6.78;3.45;;;;;;;;;;8496609;27;20387;-77
2022/09/03 04:49:49;;;;;;;8.20;4.05;;;;;;;;;;8496737;27;20043;-76
2022/09/03 04:53:55;;;;;;;6.72;3.83;;;;;;;;;;8496223;27;20569;-76
2022/09/03 04:57:59;;;;;;;6.70;3.50;;;;;;;;;;8496299;27;20054;-76
2022/09/03 05:02:03;;;;;;;6.47;3.72;;;;;;;;;;8491543;27;20082;-88
2022/09/03 05:06:07;;;;;;;8.55;4.40;;;;;;;;;;8482747;28;20047;-89
2022/09/03 05:10:12;;;;;;;10.23;4.68;;;;;;;;;;8493022;28;20124;-86
2022/09/03 05:14:14;;;;;;;9.88;5.22;;;;;;;;;;8476197;28;20058;-79
2022/09/03 05:18:18;;;;;;;24.02;11.40;;;;;;;;;;8495864;28;20071;-87
2022/09/03 05:22:21;;;;;;;69.85;36.90;;;;;;;;;;8493886;28;20048;-77
2022/09/03 05:26:25;;;;;;;26.17;13.23;;;;;;;;;;8497178;27;20380;-86
2022/09/03 05:30:28;;;;;;;23.48;12.23;;;;;;;;;;8498050;27;20039;-90
2022/09/03 05:34:32;;;;;;;14.93;8.38;;;;;;;;;;8485817;27;20065;-78
2022/09/03 05:38:35;;;;;;;16.77;10.15;;;;;;;;;;8487384;27;20500;-77
2022/09/03 05:42:38;;;;;;;15.73;9.68;;;;;;;;;;8480775;27;20039;-78
2022/09/03 05:46:40;;;;;;;14.65;9.52;;;;;;;;;;8489545;27;20042;-88
2022/09/03 05:50:44;;;;;;;12.52;7.78;;;;;;;;;;8485383;27;20490;-78
2022/09/03 05:54:46;;;;;;;10.30;4.43;;;;;;;;;;8477670;27;20483;-78
2022/09/03 05:58:51;;;;;;;8.07;4.90;;;;;;;;;;8481205;27;20422;-76
2022/09/03 06:02:54;;;;;;;6.72;3.30;;;;;;;;;;8490484;27;20058;-77
2022/09/03 06:06:57;;;;;;;5.20;3.33;;;;;;;;;;8494496;27;20046;-76
2022/09/03 06:11:02;;;;;;;6.57;3.50;;;;;;;;;;8484601;27;20074;-77
2022/09/03 06:15:05;;;;;;;9.27;2.90;;;;;;;;;;8489666;27;20047;-77
2022/09/03 06:19:09;;;;;;;7.03;2.95;;;;;;;;;;8487725;27;20076;-77
2022/09/03 06:23:13;;;;;;;4.72;2.30;;;;;;;;;;8483804;27;20047;-77
2022/09/03 06:27:16;;;;;;;5.72;2.88;;;;;;;;;;8483103;27;20058;-78
2022/09/03 06:31:21;;;;;;;6.05;2.85;;;;;;;;;;8493862;27;20717;-85
2022/09/03 06:35:30;;;;;;;5.05;2.70;;;;;;;;;;8494153;27;20065;-77
2022/09/03 06:39:35;;;;;;;5.85;3.10;;;;;;;;;;8482846;27;20134;-81
2022/09/03 06:43:41;;;;;;;5.57;2.92;;;;;;;;;;8470997;27;20051;-76
2022/09/03 06:47:44;;;;;;;5.30;2.80;;;;;;;;;;8492225;27;20035;-77
2022/09/03 06:51:48;;;;;;;5.65;2.95;;;;;;;;;;8492593;27;20103;-78
2022/09/03 06:55:58;;;;;;;10.25;3.38;;;;;;;;;;8491855;27;20059;-77
2022/09/03 07:00:03;;;;;;;6.65;3.13;;;;;;;;;;8487021;27;20065;-77
2022/09/03 07:04:06;;;;;;;6.97;3.33;;;;;;;;;;8488188;27;20050;-78
2022/09/03 07:08:10;;;;;;;6.60;3.38;;;;;;;;;;8487424;27;20048;-77
2022/09/03 07:12:17;;;;;;;5.38;3.20;;;;;;;;;;8491302;27;20044;-77
2022/09/03 07:16:22;;;;;;;7.63;3.90;;;;;;;;;;8493982;27;20043;-76
2022/09/03 07:20:25;;;;;;;7.38;4.00;;;;;;;;;;8495401;27;20399;-77
2022/09/03 07:24:28;;;;;;;9.55;3.90;;;;;;;;;;8495034;27;20100;-77
2022/09/03 07:28:32;;;;;;;8.20;4.50;;;;;;;;;;8486702;27;20055;-77
2022/09/03 07:32:35;;;;;;;7.63;4.15;;;;;;;;;;8489885;27;20520;-77
2022/09/03 07:36:40;;;;;;;10.65;5.15;;;;;;;;;;8491776;27;20042;-77
2022/09/03 07:40:43;;;;;;;10.27;4.63;;;;;;;;;;8494218;27;20079;-77
2022/09/03 07:44:46;;;;;;;8.90;4.60;;;;;;;;;;8489890;27;20047;-77
2022/09/03 07:48:49;;;;;;;10.50;5.20;;;;;;;;;;8487969;27;20452;-77
2022/09/03 07:52:57;;;;;;;9.88;5.90;;;;;;;;;;8474261;27;20086;-76
2022/09/03 07:57:00;;;;;;;13.25;6.13;;;;;;;;;;8473194;27;20052;-78
2022/09/03 08:01:08;;;;;;;13.77;5.70;;;;;;;;;;8476363;27;20081;-78
2022/09/03 08:05:11;;;;;;;12.05;5.65;;;;;;;;;;8478123;27;20074;-77
2022/09/03 08:09:14;;;;;;;12.65;6.20;;;;;;;;;;8475311;27;20055;-84
2022/09/03 08:13:17;;;;;;;16.13;10.10;;;;;;;;;;8478708;27;20051;-79
2022/09/03 08:17:22;;;;;;;10.70;5.72;;;;;;;;;;8485479;27;20078;-85
2022/09/03 08:21:26;;;;;;;17.70;5.78;;;;;;;;;;8482472;27;20049;-89
2022/09/03 08:25:32;;;;;;;13.00;5.80;;;;;;;;;;8477301;27;20514;-90
2022/09/03 08:29:38;;;;;;;11.88;6.28;;;;;;;;;;8467791;27;20043;-89
2022/09/03 08:33:50;;;;;;;13.40;6.18;;;;;;;;;;8467495;27;20043;-88
2022/09/03 08:38:04;;;;;;;8.23;4.70;;;;;;;;;;8463393;27;20040;-88
2022/09/03 08:42:27;;;;;;;6.93;3.63;;;;;;;;;;8463549;27;20517;-90
2022/09/03 08:46:53;;;;;;;10.02;4.35;;;;;;;;;;8471337;27;20058;-91
2022/09/03 08:51:04;;;;;;;6.95;3.28;;;;;;;;;;8467299;27;20059;-91
2022/09/03 08:55:27;;;;;;;;;;;;;;;;;;8468327;27;20043;-88
2022/09/03 08:59:36;;;;;;;7.97;3.95;;;;;;;;;;8465743;27;19930;-89
2022/09/03 09:03:59;;;;;;;4.80;3.15;;;;;;;;;;8468137;27;20043;-88
2022/09/03 09:08:17;;;;;;;7.88;3.60;;;;;;;;;;8463704;28;20100;-88
2022/09/03 09:12:33;;;;;;;6.07;3.50;;;;;;;;;;8462318;28;20406;-92
2022/09/03 09:16:47;;;;;;;6.30;3.20;;;;;;;;;;8485191;28;20070;-92
2022/09/03 09:20:55;;;;;;;7.25;3.30;;;;;;;;;;8473846;28;20506;-90
2022/09/03 09:25:04;;;;;;;5.57;2.70;;;;;;;;;;8466670;28;20055;-90
2022/09/03 09:29:10;;;;;;;6.88;3.15;;;;;;;;;;8448125;28;20086;-89
2022/09/03 09:33:24;;;;;;;9.32;3.28;;;;;;;;;;8470581;28;20051;-90
2022/09/03 09:37:34;;;;;;;32.05;23.60;;;;;;;;;;8466591;28;20130;-90
2022/09/03 09:41:41;;;;;;;7.78;4.43;;;;;;;;;;8487078;28;20035;-88
2022/09/03 09:45:49;;;;;;;44.08;25.95;;;;;;;;;;8478849;28;20051;-88
2022/09/03 09:49:55;;;;;;;6.50;3.15;;;;;;;;;;8487516;28;20047;-89
2022/09/03 09:54:17;;;;;;;6.75;2.90;;;;;;;;;;8484932;28;20048;-90
2022/09/03 09:58:27;;;;;;;5.82;3.20;;;;;;;;;;8483882;28;20075;-91
2022/09/03 10:02:30;;;;;;;8.45;4.05;;;;;;;;;;8476323;28;20055;-90
2022/09/03 10:10:53;;;;;;;9.18;3.30;;;;;;;;;;8477241;27;20120;-89
2022/09/03 10:15:03;;;;;;;8.73;3.47;;;;;;;;;;8486883;27;20043;-87
2022/09/03 10:19:11;;;;;;;5.03;2.90;;;;;;;;;;8494852;27;20091;-85
2022/09/03 10:23:18;;;;;;;9.85;4.03;;;;;;;;;;8498803;27;20050;-87
2022/09/03 10:27:22;;;;;;;4.72;2.67;;;;;;;;;;8495827;27;20096;-89
2022/09/03 10:31:43;;;;;;;7.15;3.10;;;;;;;;;;8500905;27;20528;-88
2022/09/03 10:35:52;;;;;;;9.15;3.30;;;;;;;;;;8488775;27;20502;-88
2022/09/03 10:40:29;;;;;;;6.47;3.45;;;;;;;;;;8479003;27;20750;-88
2022/09/03 10:44:45;;;;;;;7.32;3.60;;;;;;;;;;8489244;27;20100;-89
2022/09/03 10:49:15;;;;;;;6.10;2.97;;;;;;;;;;8490105;27;20047;-88
2022/09/03 10:53:31;;;;;;;10.75;3.78;;;;;;;;;;8499833;27;20255;-86
2022/09/03 11:39:38;;;;;;;9.35;3.60;;;;;;;;;;8739712;23;20051;-91
2022/09/03 11:43:42;;;;;;;6.85;3.00;;;;;;;;;;8204853;29;20486;-93
2022/09/03 11:47:46;;;;;;;8.02;2.90;;;;;;;;;;8210755;29;20078;-92
2022/09/03 11:51:58;;;;;;;6.20;3.28;;;;;;;;;;8204544;29;20491;-87
2022/09/03 11:56:17;;;;;;;6.00;2.80;;;;;;;;;;8202732;29;20051;-86
2022/09/03 12:00:23;;;;;;;7.47;2.90;;;;;;;;;;8202425;29;20466;-88
2022/09/03 12:04:36;;;;;;;7.68;3.22;;;;;;;;;;8191057;28;20054;-86
2022/09/03 12:09:06;;;;;;;5.45;2.65;;;;;;;;;;8189918;29;20047;-86
2022/09/03 12:13:29;;;;;;;5.45;2.83;;;;;;;;;;8198443;29;20486;-87
2022/09/03 12:17:39;;;;;;;6.22;2.70;;;;;;;;;;8196552;29;20048;-86
2022/09/03 12:21:42;;;;;;;4.78;2.92;;;;;;;;;;8198241;29;20051;-87
2022/09/03 12:25:46;;;;;;;5.30;2.72;;;;;;;;;;8199905;29;20146;-87
2022/09/03 12:29:59;;;;;;;5.28;2.90;;;;;;;;;;8200848;29;20421;-87
2022/09/03 12:34:05;;;;;;;6.00;2.88;;;;;;;;;;8199775;28;20423;-87
2022/09/03 12:38:08;;;;;;;11.30;4.47;;;;;;;;;;8200169;29;20462;-87
2022/09/03 12:42:24;;;;;;;7.38;3.33;;;;;;;;;;8200156;29;20043;-88
2022/09/03 12:46:30;;;;;;;6.93;2.90;;;;;;;;;;8200367;29;20134;-87
2022/09/03 12:50:33;;;;;;;6.15;3.30;;;;;;;;;;8200342;29;20051;-87
2022/09/03 12:54:41;;;;;;;5.78;3.13;;;;;;;;;;8200332;29;20066;-87
2022/09/03 12:58:51;;;;;;;6.32;2.92;;;;;;;;;;8195985;29;20121;-87
2022/09/03 13:03:00;;;;;;;6.88;3.20;;;;;;;;;;8183632;29;20047;-88
2022/09/03 13:07:08;;;;;;;7.90;3.15;;;;;;;;;;8190779;29;20103;-89
2022/09/03 13:11:17;;;;;;;7.32;2.83;;;;;;;;;;8187394;29;20043;-89
2022/09/03 13:15:22;;;;;;;15.38;9.77;;;;;;;;;;8191005;29;20572;-87
2022/09/03 13:19:35;;;;;;;5.18;3.10;;;;;;;;;;8196874;29;20049;-88
2022/09/03 13:23:55;;;;;;;5.30;2.92;;;;;;;;;;8194016;29;20046;-88
2022/09/03 13:28:06;;;;;;;6.35;3.00;;;;;;;;;;8199732;29;20122;-87
2022/09/03 13:32:23;;;;;;;6.88;3.53;;;;;;;;;;8198751;29;20051;-86
2022/09/03 13:36:31;;;;;;;8.30;2.83;;;;;;;;;;8199351;29;20053;-87
2022/09/03 13:40:41;;;;;;;7.60;5.55;;;;;;;;;;8199512;29;20133;-87
2022/09/03 13:44:48;;;;;;;6.88;3.53;;;;;;;;;;8193637;28;20062;-88
2022/09/03 13:53:52;;;;;;;9.88;5.93;;;;;;;;;;8123490;29;20061;-87
2022/09/03 13:58:07;;;;;;;5.22;3.35;;;;;;;;;;8161621;29;20059;-87
2022/09/03 14:02:29;;;;;;;6.90;3.65;;;;;;;;;;8204951;29;20046;-87
2022/09/03 14:06:41;;;;;;;8.30;3.10;;;;;;;;;;8201766;29;20090;-87
2022/09/03 14:10:58;;;;;;;10.40;5.50;;;;;;;;;;8204700;29;20062;-87
2022/09/03 14:15:07;;;;;;;27.58;13.23;;;;;;;;;;8206607;29;20102;-88
2022/09/03 14:19:16;;;;;;;10.73;5.20;;;;;;;;;;8210439;29;20603;-87
2022/09/03 14:23:32;;;;;;;8.30;4.38;;;;;;;;;;8199630;29;20089;-87
2022/09/03 14:27:37;;;;;;;7.35;3.35;;;;;;;;;;8201705;29;20495;-87
2022/09/03 14:32:15;;;;;;;8.63;3.15;;;;;;;;;;8198015;29;20071;-86
2022/09/03 14:36:26;;;;;;;4.43;3.10;;;;;;;;;;8192898;29;20055;-87
2022/09/03 14:40:30;;;;;;;;;;;;;;;;;;8194116;28;20118;-87
2022/09/03 14:44:55;;;;;;;8.57;2.97;;;;;;;;;;8197214;29;19922;-88
2022/09/03 14:49:42;;;;;;;6.55;2.95;;;;;;;;;;8199045;29;20487;-88
2022/09/03 14:54:33;;;;;;;9.40;3.35;;;;;;;;;;8180549;29;20420;-87
2022/09/03 14:59:00;;;;;;;6.10;2.85;;;;;;;;;;8195720;28;20080;-87
2022/09/03 15:03:25;;;;;;;7.25;3.42;;;;;;;;;;8188466;29;20558;-88
2022/09/03 15:07:37;;;;;;;11.90;5.07;;;;;;;;;;8182471;29;20102;-87
2022/09/03 15:11:49;;;;;;;8.18;3.20;;;;;;;;;;8199945;29;20071;-87
2022/09/03 15:16:08;;;;;;;5.25;3.00;;;;;;;;;;8203052;29;20047;-88
2022/09/03 15:20:22;;;;;;;11.23;4.38;;;;;;;;;;8196019;29;20039;-86
2022/09/03 15:24:37;;;;;;;12.27;4.40;;;;;;;;;;8198022;29;20054;-87
2022/09/03 15:28:56;;;;;;;7.32;3.67;;;;;;;;;;8202684;29;20123;-87
2022/09/03 15:33:11;;;;;;;9.80;3.70;;;;;;;;;;8202576;29;20051;-87
2022/09/03 15:37:21;;;;;;;10.07;4.05;;;;;;;;;;8201834;29;20074;-87
2022/09/03 15:41:36;;;;;;;12.55;5.53;;;;;;;;;;8202204;29;20051;-86
2022/09/03 15:45:50;;;;;;;13.27;5.82;;;;;;;;;;8193623;29;20070;-88
2022/09/03 15:50:00;;;;;;;9.38;5.63;;;;;;;;;;8197314;29;20051;-87
2022/09/03 15:54:15;;;;;;;8.48;5.10;;;;;;;;;;8201844;29;20047;-87
2022/09/03 15:58:27;;;;;;;10.50;5.45;;;;;;;;;;8201586;29;20130;-88
2022/09/03 16:02:39;;;;;;;10.25;6.43;;;;;;;;;;8196196;29;20399;-87
2022/09/03 16:06:54;;;;;;;16.05;6.43;;;;;;;;;;8201544;28;20053;-87
2022/09/03 16:11:07;;;;;;;10.18;6.55;;;;;;;;;;8199767;28;20055;-86
2022/09/03 16:15:16;;;;;;;12.23;6.57;;;;;;;;;;8200046;29;20047;-87
2022/09/03 16:19:26;;;;;;;12.60;6.60;;;;;;;;;;8194150;29;20126;-87
2022/09/03 16:23:36;;;;;;;13.07;7.63;;;;;;;;;;8200931;29;20051;-87
2022/09/03 16:27:51;;;;;;;14.68;7.25;;;;;;;;;;8200751;29;20055;-86
2022/09/03 16:32:10;;;;;;;13.10;6.45;;;;;;;;;;8200680;29;20051;-87
2022/09/03 16:36:29;;;;;;;112.45;49.45;;;;;;;;;;8198172;29;20098;-86
2022/09/03 16:40:39;;;;;;;14.98;8.10;;;;;;;;;;8200273;29;20061;-86
2022/09/03 16:45:00;;;;;;;13.95;7.60;;;;;;;;;;8200349;29;20139;-86
2022/09/03 16:49:15;;;;;;;35.20;18.70;;;;;;;;;;8192048;29;20054;-87
2022/09/03 16:53:29;;;;;;;10.95;5.35;;;;;;;;;;8200104;29;20307;-86
2022/09/03 16:57:49;;;;;;;12.55;7.97;;;;;;;;;;8199710;29;20492;-87
2022/09/03 17:02:06;;;;;;;13.52;8.48;;;;;;;;;;8194823;29;20496;-87
2022/09/03 17:06:41;;;;;;;14.02;8.18;;;;;;;;;;8192375;29;20055;-88
2022/09/03 17:10:49;;;;;;;16.55;10.27;;;;;;;;;;8196839;29;20510;-86
2022/09/03 17:15:21;;;;;;;15.15;10.70;;;;;;;;;;8195479;29;20402;-86
2022/09/03 17:19:33;;;;;;;23.27;12.15;;;;;;;;;;8201546;28;20047;-86
2022/09/03 17:24:05;;;;;;;15.57;9.85;;;;;;;;;;8203471;29;20039;-87
2022/09/03 17:28:20;;;;;;;16.55;11.63;;;;;;;;;;8206289;29;20073;-86
2022/09/03 17:32:35;;;;;;;15.43;9.63;;;;;;;;;;8200240;29;20454;-87
2022/09/03 17:36:41;;;;;;;16.25;9.93;;;;;;;;;;8204012;29;20047;-87
2022/09/03 17:40:57;;;;;;;16.27;9.35;;;;;;;;;;8202650;29;20043;-87
2022/09/03 17:45:09;;;;;;;11.00;6.53;;;;;;;;;;8206452;29;20043;-87
2022/09/03 17:49:21;;;;;;;14.93;8.23;;;;;;;;;;8197443;29;20477;-87
2022/09/03 17:53:32;;;;;;;18.05;7.70;;;;;;;;;;8187777;29;20136;-86
2022/09/03 17:57:43;;;;;;;14.48;6.50;;;;;;;;;;8198328;29;20043;-88
2022/09/03 18:01:52;;;;;;;14.80;7.90;;;;;;;;;;8205312;29;20054;-86
2022/09/03 18:05:59;;;;;;;17.23;11.18;;;;;;;;;;8205322;29;20066;-86
2022/09/03 18:10:17;;;;;;;26.27;17.98;;;;;;;;;;8200842;29;20134;-86
2022/09/03 18:14:27;;;;;;;31.40;20.70;;;;;;;;;;8204322;29;20054;-86
2022/09/03 18:18:33;;;;;;;31.60;18.80;;;;;;;;;;8204873;29;20063;-87
2022/09/03 20:14:13;;;;;;;18.27;10.70;;;;;;;;;;8201199;29;20487;-85
2022/09/03 20:18:29;;;;;;;17.67;11.27;;;;;;;;;;8201229;29;20060;-86
2022/09/03 20:22:40;;;;;;;19.48;10.20;;;;;;;;;;8200973;29;20410;-86
2022/09/03 20:26:54;;;;;;;13.67;8.77;;;;;;;;;;8200881;29;20055;-86
2022/09/03 20:31:02;;;;;;;12.63;7.95;;;;;;;;;;8199760;29;20047;-86
2022/09/03 20:35:13;;;;;;;16.63;9.27;;;;;;;;;;8200660;29;20118;-85
2022/09/03 20:39:30;;;;;;;23.45;14.65;;;;;;;;;;8200249;29;20562;-85
2022/09/03 20:43:51;;;;;;;13.23;8.57;;;;;;;;;;8194225;29;20502;-85
2022/09/03 20:48:07;;;;;;;13.27;7.93;;;;;;;;;;8196131;29;20061;-85
2022/09/03 20:52:17;;;;;;;15.88;9.10;;;;;;;;;;8200215;29;20074;-85
2022/09/03 20:56:26;;;;;;;14.57;9.38;;;;;;;;;;8199554;28;20596;-85
2022/09/03 21:00:48;;;;;;;13.27;9.07;;;;;;;;;;8200076;29;20130;-86
2022/09/03 21:05:05;;;;;;;16.42;9.68;;;;;;;;;;8200014;29;20059;-86
2022/09/03 21:09:24;;;;;;;17.27;10.27;;;;;;;;;;8195411;29;20506;-85
2022/09/03 21:13:39;;;;;;;13.88;9.88;;;;;;;;;;8199638;29;20043;-86
2022/09/03 21:17:55;;;;;;;16.98;9.05;;;;;;;;;;8199655;29;20134;-86
2022/09/03 21:22:03;;;;;;;15.13;9.02;;;;;;;;;;8199763;29;20078;-86
2022/09/03 21:26:13;;;;;;;16.95;9.38;;;;;;;;;;8193167;29;20074;-86
2022/09/03 21:30:18;;;;;;;15.73;9.10;;;;;;;;;;8196897;29;20043;-85
2022/09/03 21:34:27;;;;;;;12.93;8.70;;;;;;;;;;8193818;29;20112;-86
2022/09/03 21:38:35;;;;;;;15.55;9.05;;;;;;;;;;8199306;29;20066;-86
2022/09/03 21:42:43;;;;;;;14.43;8.13;;;;;;;;;;8199358;29;20443;-86
2022/09/03 21:46:54;;;;;;;15.05;8.93;;;;;;;;;;8199516;29;20444;-85
2022/09/03 21:51:00;;;;;;;18.00;9.75;;;;;;;;;;8199247;29;20483;-86
2022/09/03 21:55:21;;;;;;;13.98;9.40;;;;;;;;;;8199358;29;20043;-85
2022/09/03 21:59:36;;;;;;;17.02;9.65;;;;;;;;;;8199238;29;20118;-87
2022/09/03 22:03:40;;;;;;;16.40;9.85;;;;;;;;;;8199189;29;20051;-86
2022/09/03 22:08:06;;;;;;;16.52;9.98;;;;;;;;;;8202315;28;20043;-86
2022/09/03 22:12:16;;;;;;;13.90;9.30;;;;;;;;;;8199945;29;20055;-86
2022/09/03 22:16:26;;;;;;;16.25;9.38;;;;;;;;;;8204926;29;20087;-86
2022/09/03 22:20:29;;;;;;;15.35;9.88;;;;;;;;;;8204858;29;20047;-86
2022/09/03 22:24:42;;;;;;;15.02;9.35;;;;;;;;;;8204471;29;20501;-86
2022/09/03 22:28:53;;;;;;;17.38;10.18;;;;;;;;;;8204432;29;20050;-86
2022/09/03 22:33:03;;;;;;;17.92;9.15;;;;;;;;;;8204418;29;20046;-85
2022/09/03 22:37:13;;;;;;;15.13;8.85;;;;;;;;;;8203930;29;20063;-86
2022/09/03 22:41:30;;;;;;;16.95;9.20;;;;;;;;;;8204122;29;20043;-85
2022/09/03 22:45:58;;;;;;;15.95;9.05;;;;;;;;;;8202066;29;20074;-86
2022/09/03 22:50:07;;;;;;;16.63;9.02;;;;;;;;;;8200320;29;20050;-86
2022/09/03 22:54:24;;;;;;;16.08;10.50;;;;;;;;;;8203759;29;20047;-86
2022/09/03 22:58:31;;;;;;;16.30;9.75;;;;;;;;;;8203749;29;20130;-86
2022/09/03 23:02:38;;;;;;;20.02;10.35;;;;;;;;;;8203451;29;20127;-85
2022/09/03 23:06:49;;;;;;;13.02;8.30;;;;;;;;;;8203363;29;20050;-86
2022/09/03 23:11:01;;;;;;;14.52;8.82;;;;;;;;;;8203254;29;20516;-86
2022/09/03 23:15:07;;;;;;;17.58;9.75;;;;;;;;;;8203186;29;20070;-86
2022/09/03 23:19:18;;;;;;;14.25;9.70;;;;;;;;;;8196197;28;20485;-86
2022/09/03 23:23:27;;;;;;;17.23;10.25;;;;;;;;;;8202713;29;20062;-86
2022/09/03 23:27:37;;;;;;;13.07;8.43;;;;;;;;;;8202750;29;20043;-86
2022/09/03 23:31:39;;;;;;;17.50;9.23;;;;;;;;;;8202599;29;20055;-85
2022/09/03 23:35:52;;;;;;;15.25;9.35;;;;;;;;;;8202294;29;20047;-86
2022/09/03 23:40:11;;;;;;;15.50;8.68;;;;;;;;;;8202105;29;20059;-86
2022/09/03 23:44:34;;;;;;;20.20;10.13;;;;;;;;;;8202238;29;20553;-86
2022/09/03 23:48:50;;;;;;;11.82;7.55;;;;;;;;;;8202132;29;20043;-86
2022/09/03 23:53:14;;;;;;;14.00;8.45;;;;;;;;;;8196711;29;20075;-86
2022/09/03 23:57:24;;;;;;;15.93;9.10;;;;;;;;;;8201749;29;20051;-87
